createdAt,value
2022-08-11T00:01:50.275Z,2.17
2022-08-11T00:04:42.066Z,2.33
2022-08-11T00:07:32.473Z,2.30
2022-08-11T00:10:29.738Z,2.40
2022-08-11T00:13:20.555Z,2.22
2022-08-11T00:16:14.709Z,1.92
2022-08-11T00:19:05.103Z,2.13
2022-08-11T00:22:04.560Z,2.22
2022-08-11T00:25:02.092Z,2.13
2022-08-11T00:27:52.882Z,2.53
2022-08-11T00:30:43.072Z,2.45
2022-08-11T00:33:44.436Z,2.08
2022-08-11T00:36:43.644Z,2.15
2022-08-11T00:39:42.368Z,2.35
2022-08-11T00:43:10.743Z,2.30
2022-08-11T00:46:29.226Z,2.38
2022-08-11T00:49:51.599Z,2.30
2022-08-11T00:53:26.176Z,2.40
2022-08-11T00:56:44.377Z,2.22
2022-08-11T00:59:54.844Z,2.10
2022-08-11T01:02:56.506Z,2.28
2022-08-11T01:06:08.410Z,2.33
2022-08-11T01:09:22.196Z,2.58
2022-08-11T01:16:04.977Z,2.58
2022-08-11T01:20:39.736Z,2.28
2022-08-11T01:23:03.494Z,2.70
2022-08-11T01:26:23.161Z,2.20
2022-08-11T01:30:07.307Z,2.60
2022-08-11T01:33:53.992Z,2.20
2022-08-11T01:37:02.945Z,2.63
2022-08-11T01:40:17.596Z,2.35
2022-08-11T01:43:36.142Z,2.78
2022-08-11T01:46:56.607Z,2.60
2022-08-11T01:50:10.695Z,2.35
2022-08-11T01:53:12.770Z,2.72
2022-08-11T01:56:26.476Z,2.35
2022-08-11T01:59:35.041Z,2.75
2022-08-11T02:02:47.790Z,2.83
2022-08-11T02:06:01.139Z,2.47
2022-08-11T02:08:59.101Z,2.45
2022-08-11T02:11:56.341Z,2.60
2022-08-11T02:15:11.847Z,2.70
2022-08-11T02:18:10.877Z,2.30
2022-08-11T02:21:29.850Z,2.60
2022-08-11T02:24:36.260Z,2.28
2022-08-11T02:27:38.643Z,2.40
2022-08-11T02:30:36.986Z,2.85
2022-08-11T02:33:34.433Z,2.80
2022-08-11T02:36:52.569Z,2.38
2022-08-11T02:39:58.018Z,2.60
2022-08-11T02:42:48.215Z,2.70
2022-08-11T02:45:54.761Z,2.60
2022-08-11T02:49:22.287Z,2.88
2022-08-11T02:52:25.165Z,2.70
2022-08-11T02:55:50.863Z,2.30
2022-08-11T02:59:21.954Z,2.70
2022-08-11T03:02:47.306Z,2.95
2022-08-11T03:05:37.476Z,2.63
2022-08-11T03:08:52.421Z,2.47
2022-08-11T03:12:11.201Z,2.55
2022-08-11T03:15:35.125Z,2.88
2022-08-11T03:18:41.299Z,2.60
2022-08-11T03:22:02.251Z,2.60
2022-08-11T03:25:15.686Z,2.70
2022-08-11T03:28:30.691Z,2.83
2022-08-11T03:31:27.278Z,2.63
2022-08-11T03:34:22.960Z,2.63
2022-08-11T03:37:45.739Z,2.83
2022-08-11T03:41:01.703Z,2.90
2022-08-11T03:44:21.039Z,2.60
2022-08-11T03:47:33.183Z,2.55
2022-08-11T03:50:34.488Z,2.67
2022-08-11T03:53:55.738Z,2.65
2022-08-11T03:57:24.640Z,3.22
2022-08-11T04:00:45.531Z,3.05
2022-08-11T04:03:53.243Z,2.80
2022-08-11T04:06:52.510Z,3.00
2022-08-11T04:10:18.568Z,3.00
2022-08-11T04:13:46.008Z,2.60
2022-08-11T04:16:53.214Z,3.08
2022-08-11T04:20:05.167Z,3.88
2022-08-11T04:24:36.213Z,3.60
2022-08-11T04:27:19.110Z,3.22
2022-08-11T04:30:20.058Z,3.05
2022-08-11T04:33:56.446Z,3.20
2022-08-11T04:37:34.638Z,3.28
2022-08-11T04:40:48.874Z,3.05
2022-08-11T04:44:05.570Z,3.57
2022-08-11T04:48:01.691Z,3.50
2022-08-11T04:51:25.118Z,3.33
2022-08-11T04:54:58.650Z,2.90
2022-08-11T04:58:46.634Z,3.70
2022-08-11T05:02:17.042Z,2.90
2022-08-11T05:05:32.528Z,3.13
2022-08-11T05:08:54.252Z,3.03
2022-08-11T05:12:14.075Z,3.50
2022-08-11T05:15:24.824Z,3.58
2022-08-11T05:18:38.680Z,3.83
2022-08-11T05:21:47.460Z,3.10
2022-08-11T05:25:01.977Z,3.85
2022-08-11T05:28:24.953Z,3.55
2022-08-11T05:31:36.941Z,3.75
2022-08-11T05:34:51.942Z,3.55
2022-08-11T05:38:03.095Z,3.90
2022-08-11T05:41:14.213Z,3.95
2022-08-11T05:44:24.013Z,3.90
2022-08-11T05:47:46.257Z,3.55
2022-08-11T05:50:55.996Z,3.70
2022-08-11T05:54:28.844Z,4.20
2022-08-11T05:57:48.972Z,3.80
2022-08-11T06:00:42.096Z,3.58
2022-08-11T06:03:58.211Z,5.35
2022-08-11T06:07:01.271Z,4.13
2022-08-11T06:09:51.791Z,3.75
2022-08-11T06:12:43.153Z,3.78
2022-08-11T06:15:43.419Z,3.25
2022-08-11T06:18:34.564Z,3.33
2022-08-11T06:21:25.176Z,3.22
2022-08-11T06:24:15.871Z,3.20
2022-08-11T06:27:14.783Z,3.30
2022-08-11T06:30:13.503Z,4.10
2022-08-11T06:33:07.920Z,3.45
2022-08-11T06:39:23.086Z,3.22
2022-08-11T06:42:26.843Z,3.13
2022-08-11T06:45:48.676Z,3.22
2022-08-11T06:48:40.081Z,3.03
2022-08-11T06:51:32.437Z,3.45
2022-08-11T06:54:23.743Z,3.38
2022-08-11T06:57:33.354Z,3.40
2022-08-11T07:00:28.089Z,3.17
2022-08-11T07:03:20.460Z,2.78
2022-08-11T07:06:50.873Z,2.92
2022-08-11T07:10:38.868Z,3.00
2022-08-11T07:13:51.556Z,2.80
2022-08-11T07:16:44.392Z,3.03
2022-08-11T07:19:53.845Z,2.40
2022-08-11T07:23:16.857Z,2.78
2022-08-11T07:26:26.304Z,2.70
2022-08-11T07:29:17.264Z,3.20
2022-08-11T07:32:24.226Z,2.90
2022-08-11T07:35:24.390Z,2.80
2022-08-11T07:38:43.116Z,2.75
2022-08-11T07:41:34.525Z,2.85
2022-08-11T07:44:34.260Z,2.60
2022-08-11T07:47:45.468Z,2.70
2022-08-11T07:50:58.532Z,2.78
2022-08-11T07:53:58.515Z,2.53
2022-08-11T07:57:08.923Z,2.60
2022-08-11T08:00:18.544Z,2.42
2022-08-11T08:03:28.600Z,2.47
2022-08-11T08:06:37.868Z,2.75
2022-08-11T08:09:47.533Z,3.28
2022-08-11T08:12:56.457Z,2.63
2022-08-11T08:16:04.917Z,2.47
2022-08-11T08:18:55.239Z,2.65
2022-08-11T08:21:47.176Z,2.50
2022-08-11T08:24:41.781Z,2.58
2022-08-11T08:27:32.875Z,2.67
2022-08-11T08:30:44.069Z,2.55
2022-08-11T08:33:34.913Z,2.47
2022-08-11T08:36:25.285Z,2.63
2022-08-11T08:39:20.579Z,2.15
2022-08-11T08:42:13.351Z,2.58
2022-08-11T08:45:10.625Z,2.40
2022-08-11T08:48:04.858Z,2.25
2022-08-11T08:51:20.033Z,2.10
2022-08-11T08:54:22.054Z,2.35
2022-08-11T08:57:14.076Z,2.40
2022-08-11T09:00:08.707Z,2.20
2022-08-11T09:03:22.921Z,2.00
2022-08-11T09:06:17.173Z,2.13
2022-08-11T09:09:08.927Z,1.92
2022-08-11T09:12:00.509Z,2.33
2022-08-11T09:15:02.041Z,1.95
2022-08-11T09:18:03.488Z,1.98
2022-08-11T09:20:53.856Z,1.80
2022-08-11T09:24:07.789Z,1.75
2022-08-11T09:27:04.264Z,1.70
2022-08-11T09:29:55.650Z,1.88
2022-08-11T09:32:46.902Z,1.90
2022-08-11T09:35:38.787Z,1.70
2022-08-11T09:38:49.672Z,1.90
2022-08-11T09:42:00.489Z,1.80
2022-08-11T09:44:53.114Z,1.60
2022-08-11T09:47:45.097Z,1.90
2022-08-11T09:50:39.333Z,1.88
2022-08-11T09:53:40.752Z,1.73
2022-08-11T09:56:51.165Z,1.98
2022-08-11T09:59:41.511Z,1.80
2022-08-11T10:02:32.312Z,1.80
2022-08-11T10:05:42.962Z,1.70
2022-08-11T10:08:37.912Z,2.28
2022-08-11T10:11:29.251Z,1.80
2022-08-11T10:14:44.005Z,1.58
2022-08-11T10:18:01.669Z,1.90
2022-08-11T10:20:57.610Z,1.50
2022-08-11T10:24:06.609Z,1.80
2022-08-11T10:27:03.339Z,1.77
2022-08-11T10:30:15.525Z,1.80
2022-08-11T10:33:37.787Z,1.63
2022-08-11T10:36:35.319Z,1.50
2022-08-11T10:39:27.010Z,1.90
2022-08-11T10:42:57.111Z,1.67
2022-08-11T10:46:06.500Z,2.05
2022-08-11T10:48:57.974Z,1.67
2022-08-11T10:52:07.991Z,1.58
2022-08-11T10:55:16.887Z,1.70
2022-08-11T10:58:26.339Z,1.50
2022-08-11T11:01:26.427Z,1.55
2022-08-11T11:04:19.046Z,1.63
2022-08-11T11:07:14.996Z,1.80
2022-08-11T11:10:09.137Z,1.60
2022-08-11T11:13:18.675Z,1.80
2022-08-11T11:16:29.479Z,1.90
2022-08-11T11:19:24.154Z,1.70
2022-08-11T11:22:35.072Z,1.60
2022-08-11T11:26:07.460Z,1.60
2022-08-11T11:29:21.088Z,1.55
2022-08-11T11:32:35.176Z,1.60
2022-08-11T11:35:36.492Z,1.80
2022-08-11T11:38:28.563Z,1.70
2022-08-11T11:41:25.036Z,1.48
2022-08-11T11:44:17.198Z,1.40
2022-08-11T11:47:07.839Z,1.50
2022-08-11T11:49:59.422Z,1.50
2022-08-11T11:52:53.016Z,1.75
2022-08-11T11:55:44.073Z,1.60
2022-08-11T11:58:52.705Z,1.80
2022-08-11T12:01:44.810Z,1.67
2022-08-11T12:04:43.007Z,1.80
2022-08-11T12:07:58.728Z,1.40
2022-08-11T12:11:25.430Z,1.65
2022-08-11T12:14:20.418Z,1.55
2022-08-11T12:17:11.014Z,1.50
2022-08-11T12:20:02.277Z,1.90
2022-08-11T12:23:14.661Z,1.60
2022-08-11T12:26:27.304Z,1.60
2022-08-11T12:29:20.377Z,1.77
2022-08-11T12:32:11.145Z,1.50
2022-08-11T12:35:01.565Z,1.52
2022-08-11T12:38:10.689Z,1.77
2022-08-11T12:41:22.742Z,1.70
2022-08-11T12:44:31.615Z,1.92
2022-08-11T12:47:22.086Z,1.65
2022-08-11T12:50:30.945Z,1.50
2022-08-11T12:53:27.523Z,1.42
2022-08-11T12:56:38.349Z,1.50
2022-08-11T12:59:47.594Z,1.48
2022-08-11T13:02:59.013Z,1.60
2022-08-11T13:05:53.596Z,1.40
2022-08-11T13:08:46.750Z,1.60
2022-08-11T13:11:58.777Z,1.67
2022-08-11T13:14:49.433Z,1.50
2022-08-11T13:17:43.846Z,1.27
2022-08-11T13:20:35.803Z,2.00
2022-08-11T13:23:27.758Z,1.73
2022-08-11T13:26:20.925Z,1.50
2022-08-11T13:29:17.238Z,1.20
2022-08-11T13:32:09.205Z,1.60
2022-08-11T13:34:59.379Z,1.60
2022-08-11T13:38:19.809Z,1.60
2022-08-11T13:41:02.261Z,1.40
2022-08-11T13:43:54.025Z,1.83
2022-08-11T13:46:45.289Z,1.60
2022-08-11T13:49:39.776Z,1.35
2022-08-11T13:52:32.541Z,1.60
2022-08-11T13:55:36.518Z,1.38
2022-08-11T13:58:40.455Z,1.52
2022-08-11T14:02:20.055Z,1.45
2022-08-11T14:04:56.381Z,1.40
2022-08-11T14:07:52.868Z,1.50
2022-08-11T14:10:44.893Z,1.58
2022-08-11T14:13:42.460Z,1.40
2022-08-11T14:16:42.432Z,1.58
2022-08-11T14:19:40.695Z,1.30
2022-08-11T14:22:32.274Z,1.35
2022-08-11T14:25:22.435Z,1.48
2022-08-11T14:28:40.214Z,1.50
2022-08-11T14:31:45.206Z,1.60
2022-08-11T14:34:40.499Z,1.35
2022-08-11T14:37:30.974Z,1.20
2022-08-11T14:40:39.702Z,1.08
2022-08-11T14:44:12.639Z,1.38
2022-08-11T14:47:24.759Z,1.35
2022-08-11T14:50:22.998Z,1.45
2022-08-11T14:53:17.828Z,1.50
2022-08-11T14:56:27.778Z,1.30
2022-08-11T14:59:18.154Z,1.20
2022-08-11T15:02:27.186Z,1.30
2022-08-11T15:05:20.327Z,1.40
2022-08-11T15:08:13.826Z,1.50
2022-08-11T15:11:24.275Z,1.20
2022-08-11T15:14:35.558Z,1.40
2022-08-11T15:17:29.460Z,1.35
2022-08-11T15:20:53.692Z,1.50
2022-08-11T15:24:02.713Z,1.38
2022-08-11T15:27:13.945Z,1.65
2022-08-11T15:30:32.900Z,1.27
2022-08-11T15:33:46.266Z,1.50
2022-08-11T15:36:56.094Z,1.50
2022-08-11T15:40:41.133Z,1.60
2022-08-11T15:44:02.173Z,1.50
2022-08-11T15:46:58.039Z,1.20
2022-08-11T15:50:10.460Z,1.40
2022-08-11T15:53:11.807Z,1.60
2022-08-11T15:56:03.496Z,1.60
2022-08-11T15:59:42.342Z,1.50
2022-08-11T16:02:46.146Z,1.30
2022-08-11T16:05:46.446Z,1.30
2022-08-11T16:08:47.405Z,1.60
2022-08-11T16:11:45.484Z,1.60
2022-08-11T16:15:20.300Z,1.50
2022-08-11T16:18:16.082Z,1.50
2022-08-11T16:21:34.842Z,1.30
2022-08-11T16:27:04.750Z,1.60
2022-08-11T16:27:45.143Z,1.83
2022-08-11T16:30:43.076Z,1.55
2022-08-11T16:33:49.963Z,1.38
2022-08-11T16:37:03.096Z,1.73
2022-08-11T16:39:53.524Z,1.50
2022-08-11T16:43:10.049Z,1.70
2022-08-11T16:46:23.446Z,1.80
2022-08-11T16:49:18.455Z,1.90
2022-08-11T16:52:15.208Z,1.50
2022-08-11T16:55:05.951Z,1.48
2022-08-11T16:58:15.574Z,1.60
2022-08-11T17:01:07.708Z,1.85
2022-08-11T17:04:38.205Z,1.75
2022-08-11T17:07:48.462Z,1.40
2022-08-11T17:11:04.326Z,1.55
2022-08-11T17:14:06.964Z,1.58
2022-08-11T17:16:59.354Z,1.50
2022-08-11T17:20:40.315Z,2.13
2022-08-11T17:23:26.777Z,1.55
2022-08-11T17:26:49.669Z,1.60
2022-08-11T17:29:56.589Z,1.55
2022-08-11T17:33:09.446Z,1.33
2022-08-11T17:36:02.289Z,1.40
2022-08-11T17:38:53.260Z,1.50
2022-08-11T17:42:03.229Z,1.48
2022-08-11T17:45:13.176Z,1.50
2022-08-11T17:48:24.558Z,1.35
2022-08-11T17:51:38.641Z,1.73
2022-08-11T17:54:49.616Z,1.50
2022-08-11T17:58:01.867Z,1.92
2022-08-11T18:00:54.687Z,1.30
2022-08-11T18:03:56.284Z,1.60
2022-08-11T18:06:50.173Z,1.15
2022-08-11T18:09:59.908Z,1.50
2022-08-11T18:13:10.772Z,1.38
2022-08-11T18:16:19.570Z,1.38
2022-08-11T18:19:30.997Z,1.42
2022-08-11T18:22:43.383Z,1.52
2022-08-11T18:25:57.772Z,1.92
2022-08-11T18:32:27.123Z,1.40
2022-08-11T18:35:43.045Z,1.45
2022-08-11T18:38:58.071Z,1.60
2022-08-11T18:42:08.126Z,1.60
2022-08-11T18:45:23.475Z,1.60
2022-08-11T18:48:40.939Z,1.70
2022-08-11T18:51:52.630Z,1.70
2022-08-11T18:55:05.428Z,1.50
2022-08-11T18:58:21.909Z,1.65
2022-08-11T19:01:33.955Z,1.55
2022-08-11T19:04:44.239Z,1.70
2022-08-11T19:07:53.520Z,1.85
2022-08-11T19:11:07.392Z,1.50
2022-08-11T19:14:22.217Z,1.87
2022-08-11T19:17:43.479Z,1.92
2022-08-11T19:20:56.157Z,2.00
2022-08-11T19:24:10.397Z,1.80
2022-08-11T19:27:20.494Z,1.50
2022-08-11T19:30:29.843Z,1.90
2022-08-11T19:34:00.068Z,1.65
2022-08-11T19:37:12.683Z,1.73
2022-08-11T19:40:27.331Z,1.63
2022-08-11T19:43:38.853Z,1.83
2022-08-11T19:46:49.872Z,1.92
2022-08-11T19:50:00.607Z,2.03
2022-08-11T19:53:17.357Z,1.80
2022-08-11T19:56:28.037Z,1.83
2022-08-11T19:59:37.526Z,2.00
2022-08-11T20:02:46.850Z,1.88
2022-08-11T20:05:59.747Z,1.90
2022-08-11T20:09:12.665Z,2.13
2022-08-11T20:12:24.589Z,2.10
2022-08-11T20:15:36.214Z,2.30
2022-08-11T20:18:48.134Z,2.10
2022-08-11T20:22:00.976Z,2.15
2022-08-11T20:25:14.660Z,2.58
2022-08-11T20:28:25.028Z,1.80
2022-08-11T20:31:35.086Z,2.10
2022-08-11T20:34:43.979Z,2.17
2022-08-11T20:37:54.984Z,2.40
2022-08-11T20:41:05.469Z,2.10
2022-08-11T20:44:16.255Z,2.15
2022-08-11T20:47:26.918Z,1.90
2022-08-11T20:50:36.856Z,2.20
2022-08-11T20:53:47.680Z,1.67
2022-08-11T20:56:58.402Z,2.10
2022-08-11T21:00:08.397Z,1.85
2022-08-11T21:03:35.259Z,2.10
2022-08-11T21:06:47.996Z,2.00
2022-08-11T21:10:09.450Z,2.00
2022-08-11T21:13:25.947Z,1.85
2022-08-11T21:16:47.287Z,1.80
2022-08-11T21:20:08.006Z,1.70
2022-08-11T21:23:27.814Z,1.90
2022-08-11T21:26:40.073Z,2.40
2022-08-11T21:29:53.236Z,2.17
2022-08-11T21:33:03.593Z,2.20
2022-08-11T21:36:13.010Z,1.83
2022-08-11T21:39:25.427Z,2.25
2022-08-11T21:42:37.620Z,1.80
2022-08-11T21:45:48.007Z,2.08
2022-08-11T21:48:58.381Z,1.98
2022-08-11T21:52:07.156Z,2.00
2022-08-11T21:55:17.402Z,1.73
2022-08-11T21:58:27.101Z,1.92
2022-08-11T22:01:37.409Z,1.80
2022-08-11T22:04:49.676Z,1.70
2022-08-11T22:07:59.253Z,2.28
2022-08-11T22:11:08.507Z,1.70
2022-08-11T22:14:17.211Z,1.80
2022-08-11T22:17:25.945Z,2.10
2022-08-11T22:20:34.650Z,1.88
2022-08-11T22:23:44.707Z,1.98
2022-08-11T22:26:54.750Z,1.77
2022-08-11T22:30:03.670Z,2.05
2022-08-11T22:33:15.128Z,2.10
2022-08-11T22:36:24.917Z,1.83
2022-08-11T22:39:35.623Z,1.80
2022-08-11T22:42:45.868Z,1.90
2022-08-11T22:45:54.935Z,1.83
2022-08-11T22:49:06.342Z,2.33
2022-08-11T22:52:17.625Z,1.83
2022-08-11T22:55:28.000Z,1.80
2022-08-11T22:58:38.917Z,1.90
2022-08-11T23:01:56.269Z,1.80
2022-08-11T23:05:08.582Z,1.73
2022-08-11T23:08:18.594Z,1.83
2022-08-11T23:11:27.562Z,2.03
2022-08-11T23:14:58.913Z,1.88
2022-08-11T23:18:07.890Z,1.98
2022-08-11T23:21:17.502Z,2.08
2022-08-11T23:24:26.905Z,1.77
2022-08-11T23:27:37.201Z,2.28
2022-08-11T23:30:47.237Z,1.92
2022-08-11T23:34:01.051Z,2.00
2022-08-11T23:37:10.001Z,1.90
2022-08-11T23:40:20.155Z,1.80
2022-08-11T23:43:42.786Z,1.58
2022-08-11T23:46:52.281Z,1.88
2022-08-11T23:50:01.600Z,1.73
2022-08-11T23:53:11.914Z,2.00
2022-08-11T23:56:22.291Z,2.10
2022-08-11T23:59:33.615Z,2.10
